sensor_id;sensor_type;location;lat;lon;timestamp;temperature;humidity
37678;DHT22;23517;50.390;8.616;2023-12-07T00:02:03;2.20;1.00
37678;DHT22;23517;50.390;8.616;2023-12-07T00:04:31;2.20;1.00
37678;DHT22;23517;50.390;8.616;2023-12-07T00:06:58;2.10;1.00
37678;DHT22;23517;50.390;8.616;2023-12-07T00:09:25;2.10;1.40
37678;DHT22;23517;50.390;8.616;2023-12-07T00:11:51;2.00;1.00
37678;DHT22;23517;50.390;8.616;2023-12-07T00:14:18;1.90;1.00
37678;DHT22;23517;50.390;8.616;2023-12-07T00:16:45;1.90;1.00
37678;DHT22;23517;50.390;8.616;2023-12-07T00:19:12;1.90;1.00
37678;DHT22;23517;50.390;8.616;2023-12-07T00:21:38;1.90;1.00
37678;DHT22;23517;50.390;8.616;2023-12-07T00:24:05;1.90;1.00
37678;DHT22;23517;50.390;8.616;2023-12-07T00:26:32;1.90;1.00
37678;DHT22;23517;50.390;8.616;2023-12-07T00:28:59;1.90;1.00
37678;DHT22;23517;50.390;8.616;2023-12-07T00:31:25;2.00;1.00
37678;DHT22;23517;50.390;8.616;2023-12-07T00:33:52;2.00;1.00
37678;DHT22;23517;50.390;8.616;2023-12-07T00:36:19;1.90;1.00
37678;DHT22;23517;50.390;8.616;2023-12-07T00:38:46;1.80;1.00
37678;DHT22;23517;50.390;8.616;2023-12-07T00:41:13;1.90;1.00
37678;DHT22;23517;50.390;8.616;2023-12-07T00:43:40;1.90;1.00
37678;DHT22;23517;50.390;8.616;2023-12-07T00:46:07;1.80;1.00
37678;DHT22;23517;50.390;8.616;2023-12-07T00:48:34;1.80;99.90
37678;DHT22;23517;50.390;8.616;2023-12-07T00:51:01;1.70;99.90
37678;DHT22;23517;50.390;8.616;2023-12-07T00:53:28;1.70;1.00
37678;DHT22;23517;50.390;8.616;2023-12-07T00:55:54;1.70;1.00
37678;DHT22;23517;50.390;8.616;2023-12-07T00:58:21;1.70;1.00
37678;DHT22;23517;50.390;8.616;2023-12-07T01:00:48;1.70;1.00
37678;DHT22;23517;50.390;8.616;2023-12-07T01:03:15;1.80;1.00
37678;DHT22;23517;50.390;8.616;2023-12-07T01:05:42;1.90;1.00
37678;DHT22;23517;50.390;8.616;2023-12-07T01:08:09;2.00;1.00
37678;DHT22;23517;50.390;8.616;2023-12-07T01:10:35;2.10;1.00
37678;DHT22;23517;50.390;8.616;2023-12-07T01:13:02;2.10;1.00
37678;DHT22;23517;50.390;8.616;2023-12-07T01:15:29;2.10;1.00
37678;DHT22;23517;50.390;8.616;2023-12-07T01:17:56;2.20;1.00
37678;DHT22;23517;50.390;8.616;2023-12-07T01:20:23;2.20;1.00
37678;DHT22;23517;50.390;8.616;2023-12-07T01:22:49;2.20;1.00
37678;DHT22;23517;50.390;8.616;2023-12-07T01:25:16;2.20;1.00
37678;DHT22;23517;50.390;8.616;2023-12-07T01:27:48;2.20;1.00
37678;DHT22;23517;50.390;8.616;2023-12-07T01:30:15;2.20;1.00
37678;DHT22;23517;50.390;8.616;2023-12-07T01:32:42;2.20;1.00
37678;DHT22;23517;50.390;8.616;2023-12-07T01:35:09;2.10;1.00
37678;DHT22;23517;50.390;8.616;2023-12-07T01:37:36;2.00;1.00
37678;DHT22;23517;50.390;8.616;2023-12-07T01:40:05;1.90;1.00
37678;DHT22;23517;50.390;8.616;2023-12-07T01:42:39;1.80;1.00
37678;DHT22;23517;50.390;8.616;2023-12-07T01:45:06;1.70;1.00
37678;DHT22;23517;50.390;8.616;2023-12-07T01:47:35;1.60;99.90
37678;DHT22;23517;50.390;8.616;2023-12-07T01:50:03;1.40;99.90
37678;DHT22;23517;50.390;8.616;2023-12-07T01:52:31;1.30;99.90
37678;DHT22;23517;50.390;8.616;2023-12-07T01:54:58;1.20;1.00
37678;DHT22;23517;50.390;8.616;2023-12-07T01:57:25;1.20;1.00
37678;DHT22;23517;50.390;8.616;2023-12-07T01:59:52;1.10;1.00
37678;DHT22;23517;50.390;8.616;2023-12-07T02:02:19;1.10;1.00
37678;DHT22;23517;50.390;8.616;2023-12-07T02:04:45;1.00;1.00
37678;DHT22;23517;50.390;8.616;2023-12-07T02:07:12;1.00;1.00
37678;DHT22;23517;50.390;8.616;2023-12-07T02:09:39;1.00;1.00
37678;DHT22;23517;50.390;8.616;2023-12-07T02:12:06;1.00;1.00
37678;DHT22;23517;50.390;8.616;2023-12-07T02:14:33;0.90;1.00
37678;DHT22;23517;50.390;8.616;2023-12-07T02:17:01;0.90;1.00
37678;DHT22;23517;50.390;8.616;2023-12-07T02:19:49;0.90;1.00
37678;DHT22;23517;50.390;8.616;2023-12-07T02:22:32;0.90;1.00
37678;DHT22;23517;50.390;8.616;2023-12-07T02:25:10;0.90;1.00
37678;DHT22;23517;50.390;8.616;2023-12-07T02:27:38;0.90;1.00
37678;DHT22;23517;50.390;8.616;2023-12-07T02:30:08;0.90;1.00
37678;DHT22;23517;50.390;8.616;2023-12-07T02:32:40;0.90;1.00
37678;DHT22;23517;50.390;8.616;2023-12-07T02:35:09;0.90;1.00
37678;DHT22;23517;50.390;8.616;2023-12-07T02:37:50;1.00;1.00
37678;DHT22;23517;50.390;8.616;2023-12-07T02:40:22;0.90;1.00
37678;DHT22;23517;50.390;8.616;2023-12-07T02:42:52;0.90;1.00
37678;DHT22;23517;50.390;8.616;2023-12-07T02:45:19;0.90;1.00
37678;DHT22;23517;50.390;8.616;2023-12-07T02:47:46;0.80;1.00
37678;DHT22;23517;50.390;8.616;2023-12-07T02:50:13;0.80;1.00
37678;DHT22;23517;50.390;8.616;2023-12-07T02:52:40;0.80;1.00
37678;DHT22;23517;50.390;8.616;2023-12-07T02:55:08;0.80;1.00
37678;DHT22;23517;50.390;8.616;2023-12-07T02:57:35;0.70;1.00
37678;DHT22;23517;50.390;8.616;2023-12-07T03:00:03;0.60;1.00
37678;DHT22;23517;50.390;8.616;2023-12-07T03:02:35;0.60;1.00
37678;DHT22;23517;50.390;8.616;2023-12-07T03:05:03;0.50;1.00
37678;DHT22;23517;50.390;8.616;2023-12-07T03:07:30;0.50;1.00
37678;DHT22;23517;50.390;8.616;2023-12-07T03:09:57;0.50;1.00
37678;DHT22;23517;50.390;8.616;2023-12-07T03:12:24;0.50;1.00
37678;DHT22;23517;50.390;8.616;2023-12-07T03:14:54;0.40;1.00
37678;DHT22;23517;50.390;8.616;2023-12-07T03:17:20;0.40;1.00
37678;DHT22;23517;50.390;8.616;2023-12-07T03:19:47;0.40;1.00
37678;DHT22;23517;50.390;8.616;2023-12-07T03:22:14;0.40;1.00
37678;DHT22;23517;50.390;8.616;2023-12-07T03:24:50;0.30;1.00
37678;DHT22;23517;50.390;8.616;2023-12-07T03:27:17;0.30;1.00
37678;DHT22;23517;50.390;8.616;2023-12-07T03:29:44;0.20;1.00
37678;DHT22;23517;50.390;8.616;2023-12-07T03:32:11;0.20;1.00
37678;DHT22;23517;50.390;8.616;2023-12-07T03:34:38;0.10;1.00
37678;DHT22;23517;50.390;8.616;2023-12-07T03:37:04;0.10;1.00
37678;DHT22;23517;50.390;8.616;2023-12-07T03:39:32;0.00;1.00
37678;DHT22;23517;50.390;8.616;2023-12-07T03:42:01;-0.10;1.00
37678;DHT22;23517;50.390;8.616;2023-12-07T03:44:29;-0.10;1.00
37678;DHT22;23517;50.390;8.616;2023-12-07T03:46:57;-0.10;1.00
37678;DHT22;23517;50.390;8.616;2023-12-07T03:49:23;0.00;1.00
37678;DHT22;23517;50.390;8.616;2023-12-07T03:51:50;0.00;1.00
37678;DHT22;23517;50.390;8.616;2023-12-07T03:54:17;0.10;1.00
37678;DHT22;23517;50.390;8.616;2023-12-07T03:56:43;0.10;1.00
37678;DHT22;23517;50.390;8.616;2023-12-07T03:59:10;0.00;1.00
37678;DHT22;23517;50.390;8.616;2023-12-07T04:01:37;0.00;1.00
37678;DHT22;23517;50.390;8.616;2023-12-07T04:04:04;-0.10;1.00
37678;DHT22;23517;50.390;8.616;2023-12-07T04:06:31;-0.10;1.00
37678;DHT22;23517;50.390;8.616;2023-12-07T04:08:58;-0.10;1.00
37678;DHT22;23517;50.390;8.616;2023-12-07T04:11:24;-0.10;1.00
37678;DHT22;23517;50.390;8.616;2023-12-07T04:13:51;-0.10;1.00
37678;DHT22;23517;50.390;8.616;2023-12-07T04:16:18;-0.10;1.00
37678;DHT22;23517;50.390;8.616;2023-12-07T04:18:44;-0.20;1.00
37678;DHT22;23517;50.390;8.616;2023-12-07T04:21:11;-0.20;1.00
37678;DHT22;23517;50.390;8.616;2023-12-07T04:23:38;-0.20;1.00
37678;DHT22;23517;50.390;8.616;2023-12-07T04:26:05;-0.20;1.00
37678;DHT22;23517;50.390;8.616;2023-12-07T04:28:32;-0.20;1.00
37678;DHT22;23517;50.390;8.616;2023-12-07T04:30:58;-0.20;1.00
37678;DHT22;23517;50.390;8.616;2023-12-07T04:33:25;-0.20;1.00
37678;DHT22;23517;50.390;8.616;2023-12-07T04:35:52;-0.20;1.00
37678;DHT22;23517;50.390;8.616;2023-12-07T04:38:19;-0.20;1.00
37678;DHT22;23517;50.390;8.616;2023-12-07T04:40:46;-0.20;1.00
37678;DHT22;23517;50.390;8.616;2023-12-07T04:43:13;-0.20;1.00
37678;DHT22;23517;50.390;8.616;2023-12-07T04:45:39;-0.20;1.00
37678;DHT22;23517;50.390;8.616;2023-12-07T04:48:06;-0.20;1.00
37678;DHT22;23517;50.390;8.616;2023-12-07T04:50:33;-0.20;1.00
37678;DHT22;23517;50.390;8.616;2023-12-07T04:53:00;-0.20;1.00
37678;DHT22;23517;50.390;8.616;2023-12-07T04:55:26;-0.20;1.00
37678;DHT22;23517;50.390;8.616;2023-12-07T04:57:53;-0.20;1.00
37678;DHT22;23517;50.390;8.616;2023-12-07T05:00:20;-0.20;1.00
37678;DHT22;23517;50.390;8.616;2023-12-07T05:02:48;-0.20;1.00
37678;DHT22;23517;50.390;8.616;2023-12-07T05:05:15;-0.10;1.00
37678;DHT22;23517;50.390;8.616;2023-12-07T05:07:42;-0.10;1.00
37678;DHT22;23517;50.390;8.616;2023-12-07T05:10:09;0.00;1.00
37678;DHT22;23517;50.390;8.616;2023-12-07T05:12:36;0.20;1.00
37678;DHT22;23517;50.390;8.616;2023-12-07T05:15:03;0.50;1.00
37678;DHT22;23517;50.390;8.616;2023-12-07T05:17:32;0.60;1.00
37678;DHT22;23517;50.390;8.616;2023-12-07T05:19:59;0.70;1.00
37678;DHT22;23517;50.390;8.616;2023-12-07T05:22:26;0.70;1.00
37678;DHT22;23517;50.390;8.616;2023-12-07T05:24:53;0.70;1.00
37678;DHT22;23517;50.390;8.616;2023-12-07T05:27:19;0.50;1.00
37678;DHT22;23517;50.390;8.616;2023-12-07T05:29:46;0.50;1.00
37678;DHT22;23517;50.390;8.616;2023-12-07T05:32:13;0.30;1.00
37678;DHT22;23517;50.390;8.616;2023-12-07T05:34:40;0.20;1.00
37678;DHT22;23517;50.390;8.616;2023-12-07T05:37:07;0.20;1.00
37678;DHT22;23517;50.390;8.616;2023-12-07T05:39:34;0.10;1.00
37678;DHT22;23517;50.390;8.616;2023-12-07T05:42:01;0.00;1.00
37678;DHT22;23517;50.390;8.616;2023-12-07T05:44:28;-0.10;1.00
37678;DHT22;23517;50.390;8.616;2023-12-07T05:46:56;-0.10;1.00
37678;DHT22;23517;50.390;8.616;2023-12-07T05:49:24;-0.20;1.00
37678;DHT22;23517;50.390;8.616;2023-12-07T05:51:50;-0.20;1.00
37678;DHT22;23517;50.390;8.616;2023-12-07T05:54:19;-0.20;1.00
37678;DHT22;23517;50.390;8.616;2023-12-07T05:56:48;-0.30;1.00
37678;DHT22;23517;50.390;8.616;2023-12-07T05:59:15;-0.30;1.00
37678;DHT22;23517;50.390;8.616;2023-12-07T06:01:42;-0.30;1.00
37678;DHT22;23517;50.390;8.616;2023-12-07T06:04:09;-0.30;1.00
37678;DHT22;23517;50.390;8.616;2023-12-07T06:06:37;-0.30;1.00
37678;DHT22;23517;50.390;8.616;2023-12-07T06:09:03;-0.30;1.00
37678;DHT22;23517;50.390;8.616;2023-12-07T06:11:32;-0.30;1.00
37678;DHT22;23517;50.390;8.616;2023-12-07T06:14:00;-0.30;1.00
37678;DHT22;23517;50.390;8.616;2023-12-07T06:16:27;-0.40;1.00
37678;DHT22;23517;50.390;8.616;2023-12-07T06:18:54;-0.40;1.00
37678;DHT22;23517;50.390;8.616;2023-12-07T06:21:21;-0.40;1.00
37678;DHT22;23517;50.390;8.616;2023-12-07T06:23:48;-0.40;1.00
37678;DHT22;23517;50.390;8.616;2023-12-07T06:26:16;-0.40;1.00
37678;DHT22;23517;50.390;8.616;2023-12-07T06:28:43;-0.30;1.00
37678;DHT22;23517;50.390;8.616;2023-12-07T06:31:11;-0.40;1.00
37678;DHT22;23517;50.390;8.616;2023-12-07T06:33:38;-0.40;1.00
37678;DHT22;23517;50.390;8.616;2023-12-07T06:36:07;-0.40;1.00
37678;DHT22;23517;50.390;8.616;2023-12-07T06:38:34;-0.50;1.00
37678;DHT22;23517;50.390;8.616;2023-12-07T06:41:00;-0.50;1.00
37678;DHT22;23517;50.390;8.616;2023-12-07T06:43:27;-0.50;1.00
37678;DHT22;23517;50.390;8.616;2023-12-07T06:45:55;-0.50;1.00
37678;DHT22;23517;50.390;8.616;2023-12-07T06:48:22;-0.60;1.00
37678;DHT22;23517;50.390;8.616;2023-12-07T06:50:49;-0.60;1.00
37678;DHT22;23517;50.390;8.616;2023-12-07T06:53:16;-0.60;1.00
37678;DHT22;23517;50.390;8.616;2023-12-07T06:55:44;-0.60;1.00
37678;DHT22;23517;50.390;8.616;2023-12-07T06:58:11;-0.70;1.00
37678;DHT22;23517;50.390;8.616;2023-12-07T07:00:38;-0.70;1.00
37678;DHT22;23517;50.390;8.616;2023-12-07T07:03:05;-0.70;1.00
37678;DHT22;23517;50.390;8.616;2023-12-07T07:05:33;-0.70;1.00
37678;DHT22;23517;50.390;8.616;2023-12-07T07:07:59;-0.70;1.00
37678;DHT22;23517;50.390;8.616;2023-12-07T07:10:26;-0.60;1.00
37678;DHT22;23517;50.390;8.616;2023-12-07T07:12:53;-0.60;1.00
37678;DHT22;23517;50.390;8.616;2023-12-07T07:15:20;-0.60;1.00
37678;DHT22;23517;50.390;8.616;2023-12-07T07:17:46;-0.60;1.00
37678;DHT22;23517;50.390;8.616;2023-12-07T07:20:13;-0.60;1.00
37678;DHT22;23517;50.390;8.616;2023-12-07T07:22:40;-0.60;1.00
37678;DHT22;23517;50.390;8.616;2023-12-07T07:25:07;-0.60;1.00
37678;DHT22;23517;50.390;8.616;2023-12-07T07:27:34;-0.50;1.00
37678;DHT22;23517;50.390;8.616;2023-12-07T07:30:01;-0.50;1.00
37678;DHT22;23517;50.390;8.616;2023-12-07T07:32:31;-0.50;1.00
37678;DHT22;23517;50.390;8.616;2023-12-07T07:34:57;-0.50;1.00
37678;DHT22;23517;50.390;8.616;2023-12-07T07:37:24;-0.50;1.00
37678;DHT22;23517;50.390;8.616;2023-12-07T07:39:51;-0.50;1.00
37678;DHT22;23517;50.390;8.616;2023-12-07T07:42:18;-0.40;1.00
37678;DHT22;23517;50.390;8.616;2023-12-07T07:44:45;-0.40;1.00
37678;DHT22;23517;50.390;8.616;2023-12-07T07:47:11;-0.40;1.00
37678;DHT22;23517;50.390;8.616;2023-12-07T07:49:38;-0.40;1.00
37678;DHT22;23517;50.390;8.616;2023-12-07T07:52:05;-0.50;1.00
37678;DHT22;23517;50.390;8.616;2023-12-07T07:54:32;-0.50;1.00
37678;DHT22;23517;50.390;8.616;2023-12-07T07:56:59;-0.50;1.00
37678;DHT22;23517;50.390;8.616;2023-12-07T07:59:25;-0.50;1.00
37678;DHT22;23517;50.390;8.616;2023-12-07T08:01:52;-0.50;1.00
37678;DHT22;23517;50.390;8.616;2023-12-07T08:04:19;-0.50;1.00
37678;DHT22;23517;50.390;8.616;2023-12-07T08:06:45;-0.50;1.00
37678;DHT22;23517;50.390;8.616;2023-12-07T08:09:12;-0.50;1.00
37678;DHT22;23517;50.390;8.616;2023-12-07T08:11:39;-0.50;1.00
37678;DHT22;23517;50.390;8.616;2023-12-07T08:14:07;-0.40;1.00
37678;DHT22;23517;50.390;8.616;2023-12-07T08:16:33;-0.30;1.00
37678;DHT22;23517;50.390;8.616;2023-12-07T08:19:00;-0.20;1.00
37678;DHT22;23517;50.390;8.616;2023-12-07T08:21:27;0.00;1.00
37678;DHT22;23517;50.390;8.616;2023-12-07T08:23:57;0.00;1.00
37678;DHT22;23517;50.390;8.616;2023-12-07T08:26:24;0.30;99.90
37678;DHT22;23517;50.390;8.616;2023-12-07T08:28:51;0.50;99.90
37678;DHT22;23517;50.390;8.616;2023-12-07T08:31:20;0.50;99.90
37678;DHT22;23517;50.390;8.616;2023-12-07T08:33:50;0.60;99.90
37678;DHT22;23517;50.390;8.616;2023-12-07T08:36:42;0.60;99.90
37678;DHT22;23517;50.390;8.616;2023-12-07T08:39:09;0.60;99.90
37678;DHT22;23517;50.390;8.616;2023-12-07T08:41:36;0.60;99.90
37678;DHT22;23517;50.390;8.616;2023-12-07T08:44:04;0.70;99.90
37678;DHT22;23517;50.390;8.616;2023-12-07T08:46:32;0.70;99.90
37678;DHT22;23517;50.390;8.616;2023-12-07T08:48:59;0.70;99.90
37678;DHT22;23517;50.390;8.616;2023-12-07T08:51:25;0.60;99.90
37678;DHT22;23517;50.390;8.616;2023-12-07T08:53:52;0.70;99.90
37678;DHT22;23517;50.390;8.616;2023-12-07T08:56:21;0.60;99.90
37678;DHT22;23517;50.390;8.616;2023-12-07T08:58:48;0.70;99.90
37678;DHT22;23517;50.390;8.616;2023-12-07T09:01:15;0.70;99.90
37678;DHT22;23517;50.390;8.616;2023-12-07T09:03:55;0.70;99.90
37678;DHT22;23517;50.390;8.616;2023-12-07T09:06:22;0.70;99.90
37678;DHT22;23517;50.390;8.616;2023-12-07T09:08:49;0.60;99.90
37678;DHT22;23517;50.390;8.616;2023-12-07T09:11:16;0.60;99.90
37678;DHT22;23517;50.390;8.616;2023-12-07T09:13:42;0.60;99.90
37678;DHT22;23517;50.390;8.616;2023-12-07T09:16:09;0.50;99.90
37678;DHT22;23517;50.390;8.616;2023-12-07T09:18:36;0.60;99.90
37678;DHT22;23517;50.390;8.616;2023-12-07T09:21:03;0.60;99.90
37678;DHT22;23517;50.390;8.616;2023-12-07T09:23:31;0.60;99.90
37678;DHT22;23517;50.390;8.616;2023-12-07T09:25:58;0.60;99.90
37678;DHT22;23517;50.390;8.616;2023-12-07T09:28:24;0.50;99.90
37678;DHT22;23517;50.390;8.616;2023-12-07T09:30:51;0.50;99.90
37678;DHT22;23517;50.390;8.616;2023-12-07T09:33:18;0.50;99.90
37678;DHT22;23517;50.390;8.616;2023-12-07T09:35:47;0.50;99.90
37678;DHT22;23517;50.390;8.616;2023-12-07T09:38:15;0.40;99.90
37678;DHT22;23517;50.390;8.616;2023-12-07T09:40:43;0.40;99.90
37678;DHT22;23517;50.390;8.616;2023-12-07T09:43:11;0.40;1.00
37678;DHT22;23517;50.390;8.616;2023-12-07T09:45:39;0.50;99.90
37678;DHT22;23517;50.390;8.616;2023-12-07T09:48:05;0.60;99.90
37678;DHT22;23517;50.390;8.616;2023-12-07T09:50:34;0.60;99.90
37678;DHT22;23517;50.390;8.616;2023-12-07T09:53:02;0.90;99.90
37678;DHT22;23517;50.390;8.616;2023-12-07T09:55:34;1.10;99.90
37678;DHT22;23517;50.390;8.616;2023-12-07T09:58:04;1.10;99.90
37678;DHT22;23517;50.390;8.616;2023-12-07T10:00:34;1.10;99.90
37678;DHT22;23517;50.390;8.616;2023-12-07T10:03:02;1.00;99.90
37678;DHT22;23517;50.390;8.616;2023-12-07T10:05:29;1.00;99.90
37678;DHT22;23517;50.390;8.616;2023-12-07T10:07:56;0.90;99.90
37678;DHT22;23517;50.390;8.616;2023-12-07T10:10:23;0.90;99.90
37678;DHT22;23517;50.390;8.616;2023-12-07T10:12:55;0.80;99.90
37678;DHT22;23517;50.390;8.616;2023-12-07T10:15:24;0.80;99.90
37678;DHT22;23517;50.390;8.616;2023-12-07T10:17:52;0.60;99.90
37678;DHT22;23517;50.390;8.616;2023-12-07T10:20:22;0.50;99.90
37678;DHT22;23517;50.390;8.616;2023-12-07T10:23:04;0.50;99.90
37678;DHT22;23517;50.390;8.616;2023-12-07T10:25:38;0.60;99.90
37678;DHT22;23517;50.390;8.616;2023-12-07T10:28:06;0.60;99.90
37678;DHT22;23517;50.390;8.616;2023-12-07T10:30:35;0.60;99.90
37678;DHT22;23517;50.390;8.616;2023-12-07T10:33:06;0.60;99.90
37678;DHT22;23517;50.390;8.616;2023-12-07T10:35:40;0.70;1.00
37678;DHT22;23517;50.390;8.616;2023-12-07T10:38:09;0.90;1.00
37678;DHT22;23517;50.390;8.616;2023-12-07T10:40:37;1.00;1.00
37678;DHT22;23517;50.390;8.616;2023-12-07T10:43:06;1.00;1.00
37678;DHT22;23517;50.390;8.616;2023-12-07T10:45:36;1.10;99.90
37678;DHT22;23517;50.390;8.616;2023-12-07T10:48:07;1.10;99.90
37678;DHT22;23517;50.390;8.616;2023-12-07T10:50:40;1.20;99.90
37678;DHT22;23517;50.390;8.616;2023-12-07T10:53:19;1.40;99.90
37678;DHT22;23517;50.390;8.616;2023-12-07T10:55:53;1.60;99.90
37678;DHT22;23517;50.390;8.616;2023-12-07T10:58:23;1.60;99.90
37678;DHT22;23517;50.390;8.616;2023-12-07T11:00:52;1.80;99.90
37678;DHT22;23517;50.390;8.616;2023-12-07T11:03:20;1.90;99.90
37678;DHT22;23517;50.390;8.616;2023-12-07T11:05:49;1.90;99.90
37678;DHT22;23517;50.390;8.616;2023-12-07T11:11:20;2.10;99.90
37678;DHT22;23517;50.390;8.616;2023-12-07T11:13:58;2.20;99.90
37678;DHT22;23517;50.390;8.616;2023-12-07T11:16:36;2.20;1.00
37678;DHT22;23517;50.390;8.616;2023-12-07T11:19:04;2.20;1.00
37678;DHT22;23517;50.390;8.616;2023-12-07T11:21:38;2.20;99.90
37678;DHT22;23517;50.390;8.616;2023-12-07T11:24:06;1.90;99.90
37678;DHT22;23517;50.390;8.616;2023-12-07T11:26:32;1.70;1.00
37678;DHT22;23517;50.390;8.616;2023-12-07T11:28:59;1.50;1.00
37678;DHT22;23517;50.390;8.616;2023-12-07T11:31:26;1.50;10.70
37678;DHT22;23517;50.390;8.616;2023-12-07T11:33:53;1.50;99.90
37678;DHT22;23517;50.390;8.616;2023-12-07T11:36:20;1.70;99.90
37678;DHT22;23517;50.390;8.616;2023-12-07T11:39:15;1.50;99.90
37678;DHT22;23517;50.390;8.616;2023-12-07T11:41:54;1.50;99.90
37678;DHT22;23517;50.390;8.616;2023-12-07T11:44:33;1.50;99.90
37678;DHT22;23517;50.390;8.616;2023-12-07T11:47:01;1.50;99.90
37678;DHT22;23517;50.390;8.616;2023-12-07T11:49:28;1.50;99.90
37678;DHT22;23517;50.390;8.616;2023-12-07T11:52:22;1.50;99.90
37678;DHT22;23517;50.390;8.616;2023-12-07T11:54:50;1.50;99.90
37678;DHT22;23517;50.390;8.616;2023-12-07T11:57:17;1.50;1.00
37678;DHT22;23517;50.390;8.616;2023-12-07T11:59:45;1.50;99.90
37678;DHT22;23517;50.390;8.616;2023-12-07T12:02:13;1.50;99.90
37678;DHT22;23517;50.390;8.616;2023-12-07T12:04:40;1.60;99.90
37678;DHT22;23517;50.390;8.616;2023-12-07T12:07:08;1.60;99.90
37678;DHT22;23517;50.390;8.616;2023-12-07T12:09:35;1.70;99.90
37678;DHT22;23517;50.390;8.616;2023-12-07T12:12:01;1.60;99.90
37678;DHT22;23517;50.390;8.616;2023-12-07T12:14:29;1.50;99.90
37678;DHT22;23517;50.390;8.616;2023-12-07T12:16:56;1.40;99.90
37678;DHT22;23517;50.390;8.616;2023-12-07T12:19:23;1.30;1.00
37678;DHT22;23517;50.390;8.616;2023-12-07T12:22:03;1.20;1.00
37678;DHT22;23517;50.390;8.616;2023-12-07T12:24:35;1.30;1.00
37678;DHT22;23517;50.390;8.616;2023-12-07T12:27:04;1.30;1.00
37678;DHT22;23517;50.390;8.616;2023-12-07T12:29:32;1.20;1.00
37678;DHT22;23517;50.390;8.616;2023-12-07T12:32:02;1.20;1.00
37678;DHT22;23517;50.390;8.616;2023-12-07T12:34:32;1.20;1.00
37678;DHT22;23517;50.390;8.616;2023-12-07T12:37:00;1.20;1.00
37678;DHT22;23517;50.390;8.616;2023-12-07T12:39:29;1.20;1.00
37678;DHT22;23517;50.390;8.616;2023-12-07T12:42:00;1.20;1.00
37678;DHT22;23517;50.390;8.616;2023-12-07T12:44:29;1.30;1.00
37678;DHT22;23517;50.390;8.616;2023-12-07T12:47:07;1.30;1.00
37678;DHT22;23517;50.390;8.616;2023-12-07T12:49:39;1.30;1.00
37678;DHT22;23517;50.390;8.616;2023-12-07T12:52:10;1.30;1.00
37678;DHT22;23517;50.390;8.616;2023-12-07T12:54:39;1.30;1.00
37678;DHT22;23517;50.390;8.616;2023-12-07T12:57:09;1.30;1.00
37678;DHT22;23517;50.390;8.616;2023-12-07T12:59:37;1.30;1.00
37678;DHT22;23517;50.390;8.616;2023-12-07T13:02:03;1.40;1.00
37678;DHT22;23517;50.390;8.616;2023-12-07T13:04:31;1.40;1.00
37678;DHT22;23517;50.390;8.616;2023-12-07T13:07:07;1.50;1.00
37678;DHT22;23517;50.390;8.616;2023-12-07T13:09:34;1.40;1.00
37678;DHT22;23517;50.390;8.616;2023-12-07T13:12:01;1.50;1.00
37678;DHT22;23517;50.390;8.616;2023-12-07T13:14:33;1.50;1.00
37678;DHT22;23517;50.390;8.616;2023-12-07T13:17:05;1.50;1.00
37678;DHT22;23517;50.390;8.616;2023-12-07T13:19:34;1.50;1.00
37678;DHT22;23517;50.390;8.616;2023-12-07T13:22:02;1.40;1.00
37678;DHT22;23517;50.390;8.616;2023-12-07T13:24:32;1.40;1.00
37678;DHT22;23517;50.390;8.616;2023-12-07T13:26:59;1.50;1.00
37678;DHT22;23517;50.390;8.616;2023-12-07T13:29:26;1.40;1.00
37678;DHT22;23517;50.390;8.616;2023-12-07T13:32:03;1.40;1.00
37678;DHT22;23517;50.390;8.616;2023-12-07T13:34:30;1.50;1.00
37678;DHT22;23517;50.390;8.616;2023-12-07T13:36:57;1.50;1.00
37678;DHT22;23517;50.390;8.616;2023-12-07T13:39:24;1.50;1.00
37678;DHT22;23517;50.390;8.616;2023-12-07T13:41:57;1.50;1.00
37678;DHT22;23517;50.390;8.616;2023-12-07T13:44:26;1.50;1.00
37678;DHT22;23517;50.390;8.616;2023-12-07T13:46:55;1.50;1.00
37678;DHT22;23517;50.390;8.616;2023-12-07T13:49:23;1.50;1.00
37678;DHT22;23517;50.390;8.616;2023-12-07T13:51:59;1.60;1.00
37678;DHT22;23517;50.390;8.616;2023-12-07T13:54:33;1.60;1.00
37678;DHT22;23517;50.390;8.616;2023-12-07T13:57:22;1.60;1.00
37678;DHT22;23517;50.390;8.616;2023-12-07T13:59:54;1.60;1.00
37678;DHT22;23517;50.390;8.616;2023-12-07T14:02:21;1.60;1.00
37678;DHT22;23517;50.390;8.616;2023-12-07T14:04:49;1.50;1.00
37678;DHT22;23517;50.390;8.616;2023-12-07T14:07:18;1.50;1.00
37678;DHT22;23517;50.390;8.616;2023-12-07T14:09:48;1.50;1.00
37678;DHT22;23517;50.390;8.616;2023-12-07T14:12:25;1.50;1.00
37678;DHT22;23517;50.390;8.616;2023-12-07T14:14:54;1.50;1.00
37678;DHT22;23517;50.390;8.616;2023-12-07T14:17:21;1.60;1.00
37678;DHT22;23517;50.390;8.616;2023-12-07T14:19:58;1.70;1.00
37678;DHT22;23517;50.390;8.616;2023-12-07T14:22:44;1.60;1.00
37678;DHT22;23517;50.390;8.616;2023-12-07T14:25:12;1.60;1.00
37678;DHT22;23517;50.390;8.616;2023-12-07T14:27:39;1.60;1.00
37678;DHT22;23517;50.390;8.616;2023-12-07T14:30:06;1.70;1.00
37678;DHT22;23517;50.390;8.616;2023-12-07T14:32:34;1.70;1.00
37678;DHT22;23517;50.390;8.616;2023-12-07T14:35:00;1.60;1.00
37678;DHT22;23517;50.390;8.616;2023-12-07T14:37:27;1.60;1.00
37678;DHT22;23517;50.390;8.616;2023-12-07T14:39:55;1.60;1.00
37678;DHT22;23517;50.390;8.616;2023-12-07T14:42:21;1.60;1.00
37678;DHT22;23517;50.390;8.616;2023-12-07T14:44:49;1.60;1.00
37678;DHT22;23517;50.390;8.616;2023-12-07T14:47:15;1.60;1.00
37678;DHT22;23517;50.390;8.616;2023-12-07T14:49:42;1.60;1.00
37678;DHT22;23517;50.390;8.616;2023-12-07T14:52:09;1.60;1.00
37678;DHT22;23517;50.390;8.616;2023-12-07T14:54:38;1.60;1.00
37678;DHT22;23517;50.390;8.616;2023-12-07T14:57:05;1.70;1.00
37678;DHT22;23517;50.390;8.616;2023-12-07T14:59:34;1.70;1.00
37678;DHT22;23517;50.390;8.616;2023-12-07T15:02:01;1.70;1.00
37678;DHT22;23517;50.390;8.616;2023-12-07T15:04:28;1.70;1.00
37678;DHT22;23517;50.390;8.616;2023-12-07T15:07:00;1.70;1.00
37678;DHT22;23517;50.390;8.616;2023-12-07T15:09:27;1.70;1.00
37678;DHT22;23517;50.390;8.616;2023-12-07T15:11:55;1.80;1.00
37678;DHT22;23517;50.390;8.616;2023-12-07T15:14:22;1.70;1.00
37678;DHT22;23517;50.390;8.616;2023-12-07T15:17:03;1.60;1.00
37678;DHT22;23517;50.390;8.616;2023-12-07T15:19:31;1.60;1.00
37678;DHT22;23517;50.390;8.616;2023-12-07T15:22:01;1.60;1.00
37678;DHT22;23517;50.390;8.616;2023-12-07T15:24:28;1.60;1.00
37678;DHT22;23517;50.390;8.616;2023-12-07T15:27:03;1.60;1.00
37678;DHT22;23517;50.390;8.616;2023-12-07T15:29:31;1.60;1.00
37678;DHT22;23517;50.390;8.616;2023-12-07T15:32:00;1.60;1.00
37678;DHT22;23517;50.390;8.616;2023-12-07T15:34:27;1.50;1.00
37678;DHT22;23517;50.390;8.616;2023-12-07T15:37:05;1.50;1.00
37678;DHT22;23517;50.390;8.616;2023-12-07T15:39:32;1.60;1.00
37678;DHT22;23517;50.390;8.616;2023-12-07T15:41:58;1.70;1.00
37678;DHT22;23517;50.390;8.616;2023-12-07T15:44:27;1.60;1.00
37678;DHT22;23517;50.390;8.616;2023-12-07T15:46:57;1.50;1.00
37678;DHT22;23517;50.390;8.616;2023-12-07T15:49:24;1.60;1.00
37678;DHT22;23517;50.390;8.616;2023-12-07T15:51:52;1.70;1.00
37678;DHT22;23517;50.390;8.616;2023-12-07T15:54:24;1.60;1.00
37678;DHT22;23517;50.390;8.616;2023-12-07T15:57:05;1.70;1.00
37678;DHT22;23517;50.390;8.616;2023-12-07T15:59:33;1.80;1.00
37678;DHT22;23517;50.390;8.616;2023-12-07T16:01:59;1.70;1.00
37678;DHT22;23517;50.390;8.616;2023-12-07T16:04:27;1.70;1.00
37678;DHT22;23517;50.390;8.616;2023-12-07T16:07:02;1.60;1.00